Pettisville, Ohio
Current Conditions -  °F | °C
As of 4:55 PM on Monday 22 Dec 2014 (Local Time) from KUSE Reporting Station
Scattered Clouds Scattered Clouds  
Wind Chill: 27°   Ceiling: Unl
Heat Index: 36°   Visibility: 7mi
Dew Point: 32°   Wind: 13mph
Humidity: 87%   Direction: 70°ENE
Pressure: 29.89"   Gusts: NA
Location:  41.53°N, 84.23°W
Report Text: KUSE 222155Z AUTO 07011KT 7SM FEW048 FEW070 SCT085 02/M00 A2989 RMK AO2
Loading
Personal Weather Stations






























Interactive Weather Map New forecast layout! Learn more

10-Day Weather Forecast

Advertisements
Track Severe Weather on mobile